createdAt,value
2023-01-09T00:00:45.944Z,19.90
2023-01-09T00:03:13.140Z,16.80
2023-01-09T00:05:40.054Z,17.00
2023-01-09T00:08:07.810Z,16.80
2023-01-09T00:10:34.591Z,15.90
2023-01-09T00:13:01.348Z,19.00
2023-01-09T00:15:28.144Z,17.30
2023-01-09T00:17:55.036Z,17.90
2023-01-09T00:20:22.031Z,17.80
2023-01-09T00:22:48.770Z,17.00
2023-01-09T00:25:15.722Z,17.70
2023-01-09T00:27:42.566Z,17.70
2023-01-09T00:30:10.378Z,16.00
2023-01-09T00:32:37.282Z,16.20
2023-01-09T00:35:04.536Z,17.50
2023-01-09T00:37:31.285Z,16.00
2023-01-09T00:39:58.120Z,18.90
2023-01-09T00:42:26.887Z,16.50
2023-01-09T00:44:59.115Z,18.20
2023-01-09T00:47:35.639Z,16.10
2023-01-09T00:50:10.847Z,20.30
2023-01-09T00:52:38.020Z,15.80
2023-01-09T00:55:05.530Z,19.10
2023-01-09T00:57:32.636Z,19.90
2023-01-09T00:59:59.413Z,21.10
2023-01-09T01:02:26.191Z,16.30
2023-01-09T01:05:12.042Z,19.60
2023-01-09T01:07:38.846Z,21.20
2023-01-09T01:10:17.064Z,21.50
2023-01-09T01:12:44.051Z,19.60
2023-01-09T01:15:11.485Z,19.30
2023-01-09T01:17:38.880Z,18.50
2023-01-09T01:20:06.892Z,19.10
2023-01-09T01:22:33.739Z,20.50
2023-01-09T01:25:00.927Z,22.30
2023-01-09T01:27:28.450Z,21.50
2023-01-09T01:29:55.559Z,25.60
2023-01-09T01:32:22.544Z,27.60
2023-01-09T01:34:49.308Z,28.00
2023-01-09T01:37:16.040Z,26.60
2023-01-09T01:39:42.983Z,23.60
2023-01-09T01:42:12.914Z,30.00
2023-01-09T01:45:06.663Z,28.70
2023-01-09T01:48:01.574Z,27.20
2023-01-09T01:50:39.064Z,22.90
2023-01-09T01:53:10.196Z,25.70
2023-01-09T01:55:39.535Z,25.80
2023-01-09T01:58:07.930Z,22.80
2023-01-09T02:00:37.752Z,26.70
2023-01-09T02:03:04.660Z,24.00
2023-01-09T02:05:31.490Z,19.40
2023-01-09T02:07:58.415Z,17.40
2023-01-09T02:10:25.705Z,19.70
2023-01-09T02:12:52.629Z,19.70
2023-01-09T02:15:19.497Z,21.00
2023-01-09T02:18:20.728Z,22.00
2023-01-09T02:21:42.063Z,18.40
2023-01-09T02:24:10.963Z,17.10
2023-01-09T02:26:53.281Z,20.20
2023-01-09T02:29:54.211Z,21.00
2023-01-09T02:32:27.171Z,23.10
2023-01-09T02:34:57.456Z,22.30
2023-01-09T02:37:42.601Z,22.50
2023-01-09T02:40:43.926Z,23.00
2023-01-09T02:43:10.649Z,19.90
2023-01-09T02:45:37.587Z,21.40
2023-01-09T02:48:04.637Z,19.10
2023-01-09T02:51:02.939Z,19.90
2023-01-09T02:53:58.894Z,19.30
2023-01-09T02:56:43.834Z,19.60
2023-01-09T02:59:33.741Z,24.40
2023-01-09T03:02:06.704Z,24.90
2023-01-09T03:04:36.616Z,27.70
2023-01-09T03:07:24.662Z,24.40
2023-01-09T03:09:52.794Z,23.50
2023-01-09T03:12:23.370Z,19.60
2023-01-09T03:17:23.220Z,20.30
2023-01-09T03:19:50.451Z,17.90
2023-01-09T03:22:17.289Z,21.30
2023-01-09T03:24:44.131Z,21.60
2023-01-09T03:27:10.983Z,20.80
2023-01-09T03:29:37.964Z,22.80
2023-01-09T03:32:04.882Z,20.90
2023-01-09T03:34:31.707Z,23.20
2023-01-09T03:36:58.464Z,19.70
2023-01-09T03:39:25.291Z,22.80
2023-01-09T03:41:52.165Z,22.40
2023-01-09T03:44:18.892Z,21.90
2023-01-09T03:46:45.765Z,22.10
2023-01-09T03:49:14.125Z,20.90
2023-01-09T03:51:40.945Z,19.20
2023-01-09T03:54:08.179Z,20.80
2023-01-09T03:56:35.472Z,22.30
2023-01-09T03:59:02.296Z,25.00
2023-01-09T04:01:29.174Z,23.30
2023-01-09T04:03:56.064Z,31.50
2023-01-09T04:06:22.825Z,28.50
2023-01-09T04:08:49.673Z,32.50
2023-01-09T04:11:18.400Z,30.00
2023-01-09T04:13:45.331Z,24.60
2023-01-09T04:16:12.299Z,22.60
2023-01-09T04:18:39.222Z,25.90
2023-01-09T04:21:06.040Z,22.90
2023-01-09T04:23:32.841Z,21.90
2023-01-09T04:25:59.623Z,22.80
2023-01-09T04:28:26.432Z,20.50
2023-01-09T04:30:53.313Z,23.00
2023-01-09T04:33:20.254Z,20.20
2023-01-09T04:35:46.979Z,21.00
2023-01-09T04:38:13.773Z,20.10
2023-01-09T04:40:40.520Z,20.30
2023-01-09T04:43:07.210Z,21.60
2023-01-09T04:45:33.977Z,18.60
2023-01-09T04:48:00.723Z,18.80
2023-01-09T04:50:27.469Z,19.30
2023-01-09T04:52:54.281Z,22.60
2023-01-09T04:55:21.042Z,21.30
2023-01-09T04:57:47.913Z,21.60
2023-01-09T05:00:15.529Z,21.50
2023-01-09T05:02:42.354Z,21.90
2023-01-09T05:05:11.558Z,20.10
2023-01-09T05:07:39.252Z,21.00
2023-01-09T05:10:06.886Z,20.50
2023-01-09T05:12:34.874Z,18.30
2023-01-09T05:15:02.756Z,20.10
2023-01-09T05:17:29.611Z,24.10
2023-01-09T05:19:56.524Z,23.60
2023-01-09T05:22:23.277Z,23.10
2023-01-09T05:24:50.116Z,22.60
2023-01-09T05:27:16.981Z,19.50
2023-01-09T05:29:43.839Z,20.00
2023-01-09T05:32:10.716Z,19.70
2023-01-09T05:34:37.578Z,23.80
2023-01-09T05:37:04.638Z,24.90
2023-01-09T05:39:31.354Z,22.00
2023-01-09T05:41:58.070Z,25.40
2023-01-09T05:44:24.811Z,23.20
2023-01-09T05:46:51.607Z,20.50
2023-01-09T05:49:18.452Z,21.60
2023-01-09T05:51:45.346Z,21.10
2023-01-09T05:54:12.073Z,18.50
2023-01-09T05:56:38.768Z,20.80
2023-01-09T05:59:05.624Z,23.00
2023-01-09T06:01:32.540Z,20.90
2023-01-09T06:03:59.475Z,21.60
2023-01-09T06:06:26.460Z,19.50
2023-01-09T06:08:53.764Z,22.20
2023-01-09T06:11:20.515Z,21.10
2023-01-09T06:13:47.316Z,20.30
2023-01-09T06:16:14.244Z,21.00
2023-01-09T06:18:41.273Z,20.20
2023-01-09T06:21:08.738Z,16.80
2023-01-09T06:23:35.714Z,17.20
2023-01-09T06:26:02.420Z,18.00
2023-01-09T06:28:29.290Z,18.20
2023-01-09T06:30:56.163Z,16.50
2023-01-09T06:33:23.161Z,16.40
2023-01-09T06:35:49.965Z,15.90
2023-01-09T06:38:16.776Z,17.70
2023-01-09T06:40:43.577Z,17.00
2023-01-09T06:43:10.314Z,17.80
2023-01-09T06:45:37.050Z,20.20
2023-01-09T06:48:03.876Z,19.30
2023-01-09T06:50:30.677Z,20.00
2023-01-09T06:52:57.484Z,19.30
2023-01-09T06:55:26.425Z,19.40
2023-01-09T06:57:53.584Z,20.90
2023-01-09T07:00:20.739Z,20.60
2023-01-09T07:02:47.481Z,21.60
2023-01-09T07:05:14.304Z,21.00
2023-01-09T07:07:41.411Z,19.90
2023-01-09T07:10:09.016Z,20.10
2023-01-09T07:12:36.269Z,17.60
2023-01-09T07:15:03.315Z,19.60
2023-01-09T07:17:30.021Z,18.00
2023-01-09T07:19:56.815Z,19.40
2023-01-09T07:22:23.533Z,16.40
2023-01-09T07:24:50.389Z,17.90
2023-01-09T07:27:17.192Z,14.80
2023-01-09T07:29:43.887Z,15.80
2023-01-09T07:32:10.624Z,16.60
2023-01-09T07:34:37.835Z,16.80
2023-01-09T07:37:05.235Z,16.70
2023-01-09T07:39:31.960Z,16.10
2023-01-09T07:41:58.732Z,14.60
2023-01-09T07:44:26.086Z,16.60
2023-01-09T07:46:53.403Z,14.80
2023-01-09T07:49:20.282Z,15.00
2023-01-09T07:51:48.419Z,16.10
2023-01-09T07:54:15.212Z,16.40
2023-01-09T07:56:42.586Z,18.00
2023-01-09T07:59:09.378Z,17.60
2023-01-09T08:01:36.335Z,14.80
2023-01-09T08:04:03.429Z,18.20
2023-01-09T08:06:30.579Z,15.70
2023-01-09T08:08:57.935Z,16.90
2023-01-09T08:11:25.232Z,15.30
2023-01-09T08:13:52.132Z,14.10
2023-01-09T08:16:19.095Z,14.50
2023-01-09T08:18:46.240Z,16.80
2023-01-09T08:21:14.508Z,16.50
2023-01-09T08:23:41.360Z,16.80
2023-01-09T08:26:08.217Z,15.60
2023-01-09T08:28:35.043Z,15.90
2023-01-09T08:31:01.817Z,13.90
2023-01-09T08:33:29.316Z,13.60
2023-01-09T08:35:56.250Z,14.00
2023-01-09T08:38:23.224Z,11.40
2023-01-09T08:40:50.046Z,12.00
2023-01-09T08:43:35.709Z,14.00
2023-01-09T08:46:21.406Z,12.60
2023-01-09T08:48:48.548Z,11.90
2023-01-09T08:51:15.547Z,11.90
2023-01-09T08:53:42.469Z,12.80
2023-01-09T08:56:10.413Z,13.70
2023-01-09T08:58:37.239Z,10.90
2023-01-09T09:01:07.769Z,10.10
2023-01-09T09:03:34.479Z,12.10
2023-01-09T09:06:01.401Z,13.20
2023-01-09T09:08:28.585Z,10.90
2023-01-09T09:10:57.424Z,13.20
2023-01-09T09:13:24.410Z,10.10
2023-01-09T09:15:51.415Z,13.00
2023-01-09T09:18:18.328Z,10.40
2023-01-09T09:20:45.444Z,11.00
2023-01-09T09:23:12.400Z,10.80
2023-01-09T09:25:39.567Z,11.40
2023-01-09T09:28:07.061Z,11.30
2023-01-09T09:30:34.537Z,10.90
2023-01-09T09:33:04.413Z,11.20
2023-01-09T09:35:33.783Z,11.30
2023-01-09T09:38:04.844Z,10.80
2023-01-09T09:40:35.636Z,11.70
2023-01-09T09:43:45.769Z,12.30
2023-01-09T09:46:49.467Z,10.90
2023-01-09T09:49:22.361Z,10.50
2023-01-09T09:52:14.378Z,11.90
2023-01-09T09:54:43.239Z,16.70
2023-01-09T09:57:13.090Z,13.70
2023-01-09T09:59:39.898Z,12.50
2023-01-09T10:02:09.810Z,12.50
2023-01-09T12:08:52.871Z,8.80
2023-01-09T12:11:22.292Z,8.30
2023-01-09T12:13:55.364Z,9.20
2023-01-09T12:16:28.074Z,8.40
2023-01-09T12:18:56.844Z,9.40
2023-01-09T12:21:32.030Z,7.60
2023-01-09T12:24:14.623Z,8.60
2023-01-09T12:27:01.132Z,8.70
2023-01-09T12:30:04.284Z,9.10
2023-01-09T12:32:52.655Z,8.90
2023-01-09T12:35:28.554Z,7.50
2023-01-09T12:38:25.207Z,9.40
2023-01-09T12:41:10.398Z,9.60
2023-01-09T12:43:57.145Z,8.60
2023-01-09T12:46:26.048Z,9.20
2023-01-09T12:49:23.616Z,9.70
2023-01-09T12:52:01.199Z,9.10
2023-01-09T12:54:39.436Z,8.90
2023-01-09T12:57:12.228Z,11.00
2023-01-09T13:00:05.418Z,9.60
2023-01-09T13:02:32.424Z,9.60
2023-01-09T13:05:06.718Z,9.80
2023-01-09T13:07:37.502Z,10.00
2023-01-09T13:10:36.865Z,10.10
2023-01-09T13:13:06.982Z,9.30
2023-01-09T13:15:37.379Z,8.90
2023-01-09T13:18:05.264Z,9.30
2023-01-09T13:20:43.890Z,11.30
2023-01-09T13:23:22.119Z,9.20
2023-01-09T13:25:51.100Z,10.10
2023-01-09T13:28:18.523Z,11.40
2023-01-09T13:30:51.004Z,12.20
2023-01-09T13:33:19.365Z,10.70
2023-01-09T13:35:54.509Z,11.80
2023-01-09T13:38:22.959Z,10.40
2023-01-09T13:41:28.865Z,10.60
2023-01-09T13:44:00.162Z,9.90
2023-01-09T13:51:36.014Z,10.00
2023-01-09T13:54:02.831Z,10.40
2023-01-09T13:56:29.696Z,9.50
2023-01-09T13:58:58.143Z,10.40
2023-01-09T14:01:26.492Z,11.70
2023-01-09T14:08:42.292Z,10.60
2023-01-09T14:11:09.065Z,11.20
2023-01-09T14:13:40.933Z,11.10
2023-01-09T14:16:13.606Z,11.90
2023-01-09T14:18:46.754Z,10.20
2023-01-09T14:21:13.317Z,10.90
2023-01-09T14:23:52.763Z,10.50
2023-01-09T14:26:22.925Z,10.30
2023-01-09T14:28:49.916Z,8.80
2023-01-09T14:31:30.153Z,10.50
2023-01-09T14:34:38.953Z,9.00
2023-01-09T14:37:08.377Z,9.40
2023-01-09T14:39:37.858Z,10.50
2023-01-09T14:42:08.772Z,10.30
2023-01-09T14:44:55.809Z,9.60
2023-01-09T14:47:36.097Z,9.30
2023-01-09T14:50:07.226Z,10.50
2023-01-09T14:52:45.652Z,10.50
2023-01-09T14:55:34.116Z,10.30
2023-01-09T15:02:50.950Z,10.40
2023-01-09T15:05:20.508Z,10.70
2023-01-09T15:07:53.400Z,11.80
2023-01-09T15:10:25.692Z,11.40
2023-01-09T15:12:53.937Z,11.00
2023-01-09T15:15:20.930Z,9.70
2023-01-09T15:18:10.023Z,11.10
2023-01-09T15:20:36.660Z,10.10
2023-01-09T15:23:05.037Z,11.50
2023-01-09T15:25:38.894Z,10.10
2023-01-09T15:28:39.223Z,11.20
2023-01-09T15:31:14.685Z,10.60
2023-01-09T15:33:41.765Z,11.40
2023-01-09T15:36:15.185Z,12.00
2023-01-09T15:38:41.870Z,12.00
2023-01-09T15:41:10.426Z,11.00
2023-01-09T15:43:41.276Z,9.80
2023-01-09T15:46:10.344Z,10.10
2023-01-09T15:48:37.340Z,10.00
2023-01-09T15:51:12.890Z,12.10
2023-01-09T15:53:40.027Z,11.90
2023-01-09T15:56:18.844Z,10.00
2023-01-09T15:58:47.376Z,10.00
2023-01-09T18:15:48.196Z,6.80
2023-01-09T18:18:15.849Z,8.10
2023-01-09T18:20:43.246Z,8.50
2023-01-09T18:23:10.765Z,7.60
2023-01-09T18:25:41.468Z,7.70
2023-01-09T18:28:09.059Z,7.60
2023-01-09T18:30:36.209Z,6.90
2023-01-09T18:33:03.678Z,6.60
2023-01-09T18:35:32.867Z,6.20
2023-01-09T18:37:59.605Z,7.10
2023-01-09T18:40:27.272Z,5.80
2023-01-09T18:42:54.932Z,6.40
2023-01-09T18:45:21.591Z,7.10
2023-01-09T18:47:48.220Z,7.20
2023-01-09T18:50:15.268Z,6.30
2023-01-09T18:52:42.526Z,6.70
2023-01-09T18:55:09.691Z,5.60
2023-01-09T18:57:36.945Z,5.90
2023-01-09T19:00:04.482Z,6.40
2023-01-09T19:02:31.462Z,6.40
2023-01-09T19:04:59.085Z,6.00
2023-01-09T19:07:26.257Z,5.20
2023-01-09T19:09:53.285Z,7.50
2023-01-09T19:12:20.125Z,6.90
2023-01-09T19:14:47.785Z,6.30
2023-01-09T19:17:15.061Z,6.60
2023-01-09T19:19:41.921Z,6.10
2023-01-09T19:22:09.138Z,6.10
2023-01-09T19:24:37.030Z,6.10
2023-01-09T19:27:04.264Z,7.50
2023-01-09T19:29:31.390Z,6.30
2023-01-09T19:31:59.044Z,9.40
2023-01-09T19:34:30.755Z,5.30
2023-01-09T19:36:57.575Z,5.20
2023-01-09T19:39:24.343Z,5.40
2023-01-09T19:41:51.273Z,6.00
2023-01-09T19:44:20.452Z,7.30
2023-01-09T19:46:47.138Z,5.30
2023-01-09T19:49:13.834Z,6.60
2023-01-09T19:51:42.027Z,7.00
2023-01-09T19:54:09.774Z,5.70
2023-01-09T19:56:40.344Z,6.30
2023-01-09T19:59:07.615Z,5.10
2023-01-09T20:01:36.253Z,6.70
2023-01-09T20:04:07.015Z,6.80
2023-01-09T20:06:38.644Z,8.60
2023-01-09T20:09:05.272Z,8.30
2023-01-09T20:11:32.351Z,8.00
2023-01-09T20:13:59.773Z,8.10
2023-01-09T20:16:28.400Z,8.90
2023-01-09T20:18:57.696Z,8.10
2023-01-09T20:21:25.909Z,7.30
2023-01-09T20:23:54.318Z,7.20
2023-01-09T20:26:22.388Z,7.50
2023-01-09T20:28:49.558Z,7.80
2023-01-09T20:31:17.747Z,7.40
2023-01-09T20:33:45.511Z,6.30
2023-01-09T20:36:12.227Z,6.60
2023-01-09T20:38:39.719Z,8.10
2023-01-09T20:41:21.988Z,6.50
2023-01-09T20:43:55.382Z,7.20
2023-01-09T20:46:25.298Z,7.40
2023-01-09T20:48:55.381Z,8.10
2023-01-09T20:51:22.262Z,6.40
2023-01-09T20:53:55.244Z,7.30
2023-01-09T20:56:23.114Z,6.70
2023-01-09T20:58:50.376Z,5.90
2023-01-09T21:01:17.266Z,6.10
2023-01-09T21:03:44.434Z,6.50
2023-01-09T21:06:14.793Z,6.90
2023-01-09T21:11:09.806Z,7.10
2023-01-09T21:13:37.705Z,7.70
2023-01-09T21:16:12.702Z,7.60
2023-01-09T21:18:39.863Z,6.80
2023-01-09T21:21:08.589Z,6.60
2023-01-09T21:23:35.302Z,6.90
2023-01-09T21:26:08.552Z,7.80
2023-01-09T21:28:45.052Z,7.60
2023-01-09T21:31:13.288Z,8.00
2023-01-09T21:33:40.176Z,7.40
2023-01-09T21:36:07.531Z,7.20
2023-01-09T21:38:34.290Z,6.90
2023-01-09T21:41:21.081Z,6.70
2023-01-09T21:44:14.365Z,7.50
2023-01-09T21:46:57.063Z,7.10
2023-01-09T21:49:25.468Z,8.30
2023-01-09T21:51:55.424Z,6.60
2023-01-09T21:54:23.389Z,7.70
2023-01-09T21:56:53.955Z,8.40
2023-01-09T21:59:23.595Z,7.60
2023-01-09T22:01:50.722Z,6.60
2023-01-09T22:04:19.547Z,7.40
2023-01-09T22:06:49.478Z,5.80
2023-01-09T22:09:16.367Z,7.00
2023-01-09T22:11:43.241Z,6.20
2023-01-09T22:14:14.536Z,7.50
2023-01-09T22:16:44.619Z,5.90
2023-01-09T22:19:12.070Z,7.10
2023-01-09T22:21:38.773Z,6.10
2023-01-09T22:24:06.252Z,6.80
2023-01-09T22:26:33.503Z,8.20
2023-01-09T22:29:00.572Z,7.10
2023-01-09T22:31:32.167Z,7.30
2023-01-09T22:33:59.649Z,7.40
2023-01-09T22:36:28.548Z,6.90
2023-01-09T22:38:58.987Z,7.40
2023-01-09T22:41:26.462Z,5.80
2023-01-09T22:43:53.678Z,7.30
2023-01-09T22:46:20.609Z,6.60
2023-01-09T22:48:47.877Z,8.20
2023-01-09T22:51:16.364Z,7.00
2023-01-09T22:53:43.352Z,6.00
2023-01-09T22:56:13.448Z,6.50
2023-01-09T22:58:40.233Z,7.00
2023-01-09T23:01:08.953Z,7.10
2023-01-09T23:03:35.796Z,7.00
2023-01-09T23:06:05.062Z,6.40
2023-01-09T23:08:31.639Z,7.30
2023-01-09T23:10:58.371Z,6.40
2023-01-09T23:13:26.239Z,6.00
2023-01-09T23:15:54.050Z,6.90
2023-01-09T23:18:21.067Z,5.30
2023-01-09T23:20:58.866Z,5.90
2023-01-09T23:23:26.569Z,5.90
2023-01-09T23:25:55.613Z,5.80
2023-01-09T23:28:22.509Z,4.70
2023-01-09T23:30:49.233Z,5.70
2023-01-09T23:33:20.568Z,6.20
2023-01-09T23:35:49.266Z,6.40
2023-01-09T23:38:16.487Z,6.10
2023-01-09T23:40:43.275Z,7.10
2023-01-09T23:43:11.122Z,5.90
2023-01-09T23:45:40.035Z,5.50
2023-01-09T23:48:07.549Z,5.40
2023-01-09T23:50:35.821Z,5.80
2023-01-09T23:53:02.707Z,5.00
2023-01-09T23:55:30.129Z,6.00
2023-01-09T23:57:57.158Z,5.30
